sensor_id;sensor_type;location;lat;lon;timestamp;P1;durP1;ratioP1;P2;durP2;ratioP2
75423;SDS011;64005;55.160;36.002;2023-04-03T00:02:23;14.30;;;4.40;;
75423;SDS011;64005;55.160;36.002;2023-04-03T00:04:51;27.63;;;5.25;;
75423;SDS011;64005;55.160;36.002;2023-04-03T00:07:18;18.70;;;4.80;;
75423;SDS011;64005;55.160;36.002;2023-04-03T00:09:45;16.33;;;5.22;;
75423;SDS011;64005;55.160;36.002;2023-04-03T00:12:13;15.27;;;4.55;;
75423;SDS011;64005;55.160;36.002;2023-04-03T00:14:42;18.92;;;5.50;;
75423;SDS011;64005;55.160;36.002;2023-04-03T00:17:09;12.82;;;4.50;;
75423;SDS011;64005;55.160;36.002;2023-04-03T00:19:37;9.10;;;3.85;;
75423;SDS011;64005;55.160;36.002;2023-04-03T00:22:04;10.10;;;4.18;;
75423;SDS011;64005;55.160;36.002;2023-04-03T00:24:32;11.20;;;4.13;;
75423;SDS011;64005;55.160;36.002;2023-04-03T00:26:59;28.70;;;6.65;;
75423;SDS011;64005;55.160;36.002;2023-04-03T00:29:27;31.63;;;6.78;;
75423;SDS011;64005;55.160;36.002;2023-04-03T00:31:56;27.30;;;6.13;;
75423;SDS011;64005;55.160;36.002;2023-04-03T00:34:23;17.90;;;4.53;;
75423;SDS011;64005;55.160;36.002;2023-04-03T00:36:51;58.30;;;7.85;;
75423;SDS011;64005;55.160;36.002;2023-04-03T00:39:18;55.47;;;7.55;;
75423;SDS011;64005;55.160;36.002;2023-04-03T00:41:46;25.40;;;5.57;;
75423;SDS011;64005;55.160;36.002;2023-04-03T00:44:21;98.53;;;9.30;;
75423;SDS011;64005;55.160;36.002;2023-04-03T00:47:11;30.02;;;6.25;;
75423;SDS011;64005;55.160;36.002;2023-04-03T00:49:41;120.65;;;12.10;;
75423;SDS011;64005;55.160;36.002;2023-04-03T00:52:11;39.20;;;7.40;;
75423;SDS011;64005;55.160;36.002;2023-04-03T00:54:42;61.92;;;7.45;;
75423;SDS011;64005;55.160;36.002;2023-04-03T00:57:12;68.30;;;7.55;;
75423;SDS011;64005;55.160;36.002;2023-04-03T00:59:41;28.80;;;7.82;;
75423;SDS011;64005;55.160;36.002;2023-04-03T01:02:13;59.90;;;8.30;;
75423;SDS011;64005;55.160;36.002;2023-04-03T01:04:41;61.88;;;7.40;;
75423;SDS011;64005;55.160;36.002;2023-04-03T01:07:11;61.70;;;6.90;;
75423;SDS011;64005;55.160;36.002;2023-04-03T01:09:42;72.88;;;8.18;;
75423;SDS011;64005;55.160;36.002;2023-04-03T01:12:15;21.60;;;5.85;;
75423;SDS011;64005;55.160;36.002;2023-04-03T01:14:45;43.70;;;5.80;;
75423;SDS011;64005;55.160;36.002;2023-04-03T01:17:30;38.65;;;6.30;;
75423;SDS011;64005;55.160;36.002;2023-04-03T01:20:19;30.65;;;6.10;;
75423;SDS011;64005;55.160;36.002;2023-04-03T01:23:06;28.67;;;5.13;;
75423;SDS011;64005;55.160;36.002;2023-04-03T01:25:49;13.88;;;4.25;;
75423;SDS011;64005;55.160;36.002;2023-04-03T01:28:19;19.38;;;4.68;;
75423;SDS011;64005;55.160;36.002;2023-04-03T01:30:48;20.13;;;4.30;;
75423;SDS011;64005;55.160;36.002;2023-04-03T01:33:21;7.90;;;3.60;;
75423;SDS011;64005;55.160;36.002;2023-04-03T01:35:49;19.50;;;3.97;;
75423;SDS011;64005;55.160;36.002;2023-04-03T01:38:16;9.40;;;3.28;;
75423;SDS011;64005;55.160;36.002;2023-04-03T01:40:44;8.82;;;4.05;;
75423;SDS011;64005;55.160;36.002;2023-04-03T01:43:11;9.43;;;4.20;;
75423;SDS011;64005;55.160;36.002;2023-04-03T01:45:39;14.77;;;4.65;;
75423;SDS011;64005;55.160;36.002;2023-04-03T01:48:06;9.45;;;3.97;;
75423;SDS011;64005;55.160;36.002;2023-04-03T01:50:35;10.07;;;3.92;;
75423;SDS011;64005;55.160;36.002;2023-04-03T01:53:03;8.60;;;3.45;;
75423;SDS011;64005;55.160;36.002;2023-04-03T01:55:30;19.85;;;4.70;;
75423;SDS011;64005;55.160;36.002;2023-04-03T01:57:58;9.20;;;4.45;;
75423;SDS011;64005;55.160;36.002;2023-04-03T02:00:25;7.68;;;3.88;;
75423;SDS011;64005;55.160;36.002;2023-04-03T02:02:53;10.73;;;3.70;;
75423;SDS011;64005;55.160;36.002;2023-04-03T02:05:20;6.50;;;2.80;;
75423;SDS011;64005;55.160;36.002;2023-04-03T02:07:50;32.58;;;4.53;;
75423;SDS011;64005;55.160;36.002;2023-04-03T02:10:17;26.88;;;4.45;;
75423;SDS011;64005;55.160;36.002;2023-04-03T02:12:45;10.10;;;3.30;;
75423;SDS011;64005;55.160;36.002;2023-04-03T02:15:12;10.23;;;3.60;;
75423;SDS011;64005;55.160;36.002;2023-04-03T02:17:40;13.65;;;3.85;;
75423;SDS011;64005;55.160;36.002;2023-04-03T02:20:07;12.73;;;3.80;;
75423;SDS011;64005;55.160;36.002;2023-04-03T02:22:35;9.65;;;3.50;;
75423;SDS011;64005;55.160;36.002;2023-04-03T02:25:05;12.50;;;3.70;;
75423;SDS011;64005;55.160;36.002;2023-04-03T02:27:32;9.32;;;4.47;;
75423;SDS011;64005;55.160;36.002;2023-04-03T02:30:01;7.18;;;3.80;;
75423;SDS011;64005;55.160;36.002;2023-04-03T02:32:29;14.27;;;4.05;;
75423;SDS011;64005;55.160;36.002;2023-04-03T02:34:56;8.00;;;3.65;;
75423;SDS011;64005;55.160;36.002;2023-04-03T02:37:24;21.88;;;4.80;;
75423;SDS011;64005;55.160;36.002;2023-04-03T02:39:51;9.05;;;3.60;;
75423;SDS011;64005;55.160;36.002;2023-04-03T02:42:20;18.20;;;4.18;;
75423;SDS011;64005;55.160;36.002;2023-04-03T02:44:48;20.83;;;4.00;;
75423;SDS011;64005;55.160;36.002;2023-04-03T02:47:15;35.22;;;4.97;;
75423;SDS011;64005;55.160;36.002;2023-04-03T02:49:43;7.10;;;2.78;;
75423;SDS011;64005;55.160;36.002;2023-04-03T02:52:11;8.65;;;3.15;;
75423;SDS011;64005;55.160;36.002;2023-04-03T02:54:39;10.40;;;2.90;;
75423;SDS011;64005;55.160;36.002;2023-04-03T02:57:06;23.48;;;3.50;;
75423;SDS011;64005;55.160;36.002;2023-04-03T02:59:36;54.88;;;5.03;;
75423;SDS011;64005;55.160;36.002;2023-04-03T03:02:06;44.33;;;6.22;;
75423;SDS011;64005;55.160;36.002;2023-04-03T03:04:34;28.33;;;5.25;;
75423;SDS011;64005;55.160;36.002;2023-04-03T03:07:02;12.23;;;4.18;;
75423;SDS011;64005;55.160;36.002;2023-04-03T03:09:29;23.25;;;5.20;;
75423;SDS011;64005;55.160;36.002;2023-04-03T03:11:57;52.78;;;6.45;;
75423;SDS011;64005;55.160;36.002;2023-04-03T03:14:25;33.92;;;5.97;;
75423;SDS011;64005;55.160;36.002;2023-04-03T03:16:54;15.50;;;4.95;;
75423;SDS011;64005;55.160;36.002;2023-04-03T03:19:21;49.28;;;5.72;;
75423;SDS011;64005;55.160;36.002;2023-04-03T03:21:48;77.00;;;7.00;;
75423;SDS011;64005;55.160;36.002;2023-04-03T03:24:16;61.03;;;8.95;;
75423;SDS011;64005;55.160;36.002;2023-04-03T03:26:44;73.97;;;8.18;;
75423;SDS011;64005;55.160;36.002;2023-04-03T03:29:11;84.55;;;10.05;;
75423;SDS011;64005;55.160;36.002;2023-04-03T03:31:39;78.57;;;7.90;;
75423;SDS011;64005;55.160;36.002;2023-04-03T03:34:08;38.67;;;6.20;;
75423;SDS011;64005;55.160;36.002;2023-04-03T03:36:35;47.72;;;6.45;;
75423;SDS011;64005;55.160;36.002;2023-04-03T03:39:03;64.95;;;7.18;;
75423;SDS011;64005;55.160;36.002;2023-04-03T03:41:30;55.50;;;7.82;;
75423;SDS011;64005;55.160;36.002;2023-04-03T03:43:58;82.90;;;10.55;;
75423;SDS011;64005;55.160;36.002;2023-04-03T03:46:25;76.22;;;9.23;;
75423;SDS011;64005;55.160;36.002;2023-04-03T03:48:52;120.88;;;10.27;;
75423;SDS011;64005;55.160;36.002;2023-04-03T03:51:21;125.80;;;10.95;;
75423;SDS011;64005;55.160;36.002;2023-04-03T03:53:49;114.75;;;9.93;;
75423;SDS011;64005;55.160;36.002;2023-04-03T03:56:16;67.45;;;8.27;;
75423;SDS011;64005;55.160;36.002;2023-04-03T03:58:44;75.85;;;9.15;;
75423;SDS011;64005;55.160;36.002;2023-04-03T04:01:11;101.38;;;11.85;;
75423;SDS011;64005;55.160;36.002;2023-04-03T04:03:40;106.05;;;9.93;;
75423;SDS011;64005;55.160;36.002;2023-04-03T04:06:08;119.05;;;12.52;;
75423;SDS011;64005;55.160;36.002;2023-04-03T04:08:37;146.30;;;12.80;;
75423;SDS011;64005;55.160;36.002;2023-04-03T04:11:04;124.95;;;13.52;;
75423;SDS011;64005;55.160;36.002;2023-04-03T04:13:32;150.40;;;14.77;;
75423;SDS011;64005;55.160;36.002;2023-04-03T04:16:00;71.63;;;7.35;;
75423;SDS011;64005;55.160;36.002;2023-04-03T04:18:28;132.75;;;10.88;;
75423;SDS011;64005;55.160;36.002;2023-04-03T04:20:56;129.05;;;11.18;;
75423;SDS011;64005;55.160;36.002;2023-04-03T04:23:23;65.28;;;6.78;;
75423;SDS011;64005;55.160;36.002;2023-04-03T04:25:52;125.13;;;11.00;;
75423;SDS011;64005;55.160;36.002;2023-04-03T04:28:19;102.55;;;10.68;;
75423;SDS011;64005;55.160;36.002;2023-04-03T04:30:47;114.47;;;9.63;;
75423;SDS011;64005;55.160;36.002;2023-04-03T04:33:14;70.45;;;8.77;;
75423;SDS011;64005;55.160;36.002;2023-04-03T04:35:42;69.30;;;7.20;;
75423;SDS011;64005;55.160;36.002;2023-04-03T04:38:09;95.70;;;7.97;;
75423;SDS011;64005;55.160;36.002;2023-04-03T04:40:37;104.60;;;8.45;;
75423;SDS011;64005;55.160;36.002;2023-04-03T04:43:07;75.20;;;7.18;;
75423;SDS011;64005;55.160;36.002;2023-04-03T04:45:36;122.90;;;11.18;;
75423;SDS011;64005;55.160;36.002;2023-04-03T04:48:03;92.45;;;8.65;;
75423;SDS011;64005;55.160;36.002;2023-04-03T04:50:31;100.90;;;8.68;;
75423;SDS011;64005;55.160;36.002;2023-04-03T04:52:59;46.35;;;5.72;;
75423;SDS011;64005;55.160;36.002;2023-04-03T04:55:26;66.30;;;5.10;;
75423;SDS011;64005;55.160;36.002;2023-04-03T04:57:54;63.70;;;6.35;;
75423;SDS011;64005;55.160;36.002;2023-04-03T05:00:23;49.55;;;5.65;;
75423;SDS011;64005;55.160;36.002;2023-04-03T05:02:50;116.78;;;10.82;;
75423;SDS011;64005;55.160;36.002;2023-04-03T05:05:18;110.40;;;8.50;;
75423;SDS011;64005;55.160;36.002;2023-04-03T05:07:45;70.95;;;6.20;;
75423;SDS011;64005;55.160;36.002;2023-04-03T05:10:12;68.13;;;6.20;;
75423;SDS011;64005;55.160;36.002;2023-04-03T05:12:40;132.27;;;11.15;;
75423;SDS011;64005;55.160;36.002;2023-04-03T05:15:08;64.90;;;7.68;;
75423;SDS011;64005;55.160;36.002;2023-04-03T05:17:38;67.60;;;6.40;;
75423;SDS011;64005;55.160;36.002;2023-04-03T05:20:06;18.15;;;3.28;;
75423;SDS011;64005;55.160;36.002;2023-04-03T05:22:34;79.10;;;8.45;;
75423;SDS011;64005;55.160;36.002;2023-04-03T05:25:01;50.55;;;5.32;;
75423;SDS011;64005;55.160;36.002;2023-04-03T05:27:29;48.38;;;5.50;;
75423;SDS011;64005;55.160;36.002;2023-04-03T05:29:57;44.22;;;4.88;;
75423;SDS011;64005;55.160;36.002;2023-04-03T05:32:25;67.82;;;6.10;;
75423;SDS011;64005;55.160;36.002;2023-04-03T05:34:54;69.20;;;6.32;;
75423;SDS011;64005;55.160;36.002;2023-04-03T05:37:21;47.13;;;4.43;;
75423;SDS011;64005;55.160;36.002;2023-04-03T05:39:49;52.88;;;5.15;;
75423;SDS011;64005;55.160;36.002;2023-04-03T05:42:17;35.42;;;5.13;;
75423;SDS011;64005;55.160;36.002;2023-04-03T05:44:44;42.00;;;4.30;;
75423;SDS011;64005;55.160;36.002;2023-04-03T05:47:12;60.95;;;5.53;;
75423;SDS011;64005;55.160;36.002;2023-04-03T05:49:40;44.78;;;5.07;;
75423;SDS011;64005;55.160;36.002;2023-04-03T05:52:11;46.75;;;4.93;;
75423;SDS011;64005;55.160;36.002;2023-04-03T05:54:47;28.33;;;4.25;;
75423;SDS011;64005;55.160;36.002;2023-04-03T05:57:21;39.28;;;4.18;;
75423;SDS011;64005;55.160;36.002;2023-04-03T05:59:49;17.70;;;3.95;;
75423;SDS011;64005;55.160;36.002;2023-04-03T06:02:23;8.98;;;2.67;;
75423;SDS011;64005;55.160;36.002;2023-04-03T06:04:52;14.93;;;3.53;;
75423;SDS011;64005;55.160;36.002;2023-04-03T06:07:22;8.43;;;3.03;;
75423;SDS011;64005;55.160;36.002;2023-04-03T06:09:54;7.22;;;2.92;;
75423;SDS011;64005;55.160;36.002;2023-04-03T06:12:22;9.18;;;2.92;;
75423;SDS011;64005;55.160;36.002;2023-04-03T06:14:50;12.02;;;4.10;;
75423;SDS011;64005;55.160;36.002;2023-04-03T06:17:17;8.82;;;3.47;;
75423;SDS011;64005;55.160;36.002;2023-04-03T06:19:52;12.35;;;3.63;;
75423;SDS011;64005;55.160;36.002;2023-04-03T06:22:22;9.63;;;3.22;;
75423;SDS011;64005;55.160;36.002;2023-04-03T06:24:51;8.80;;;3.92;;
75423;SDS011;64005;55.160;36.002;2023-04-03T06:27:18;11.27;;;4.47;;
75423;SDS011;64005;55.160;36.002;2023-04-03T06:29:46;9.57;;;3.25;;
75423;SDS011;64005;55.160;36.002;2023-04-03T06:32:14;10.00;;;4.03;;
75423;SDS011;64005;55.160;36.002;2023-04-03T06:34:41;9.48;;;4.07;;
75423;SDS011;64005;55.160;36.002;2023-04-03T06:37:10;10.15;;;3.40;;
75423;SDS011;64005;55.160;36.002;2023-04-03T06:39:43;7.90;;;3.63;;
75423;SDS011;64005;55.160;36.002;2023-04-03T06:42:10;9.70;;;3.90;;
75423;SDS011;64005;55.160;36.002;2023-04-03T06:44:38;8.52;;;3.70;;
75423;SDS011;64005;55.160;36.002;2023-04-03T06:47:05;10.35;;;4.10;;
75423;SDS011;64005;55.160;36.002;2023-04-03T06:49:33;10.07;;;4.50;;
75423;SDS011;64005;55.160;36.002;2023-04-03T06:52:02;11.15;;;4.32;;
75423;SDS011;64005;55.160;36.002;2023-04-03T06:54:30;10.35;;;4.65;;
75423;SDS011;64005;55.160;36.002;2023-04-03T06:56:59;8.88;;;4.15;;
75423;SDS011;64005;55.160;36.002;2023-04-03T06:59:27;11.23;;;4.57;;
75423;SDS011;64005;55.160;36.002;2023-04-03T07:01:54;10.05;;;4.65;;
75423;SDS011;64005;55.160;36.002;2023-04-03T07:04:23;10.88;;;4.22;;
75423;SDS011;64005;55.160;36.002;2023-04-03T07:06:51;12.07;;;4.85;;
75423;SDS011;64005;55.160;36.002;2023-04-03T07:09:19;10.18;;;4.30;;
75423;SDS011;64005;55.160;36.002;2023-04-03T07:11:46;10.20;;;4.65;;
75423;SDS011;64005;55.160;36.002;2023-04-03T07:14:15;11.98;;;4.53;;
75423;SDS011;64005;55.160;36.002;2023-04-03T07:16:43;9.70;;;3.60;;
75423;SDS011;64005;55.160;36.002;2023-04-03T07:24:14;9.88;;;4.65;;
75423;SDS011;64005;55.160;36.002;2023-04-03T07:29:39;9.90;;;4.22;;
75423;SDS011;64005;55.160;36.002;2023-04-03T07:34:51;9.77;;;4.68;;
75423;SDS011;64005;55.160;36.002;2023-04-03T07:39:54;11.00;;;4.63;;
75423;SDS011;64005;55.160;36.002;2023-04-03T07:45:12;10.57;;;5.10;;
75423;SDS011;64005;55.160;36.002;2023-04-03T07:50:15;9.20;;;4.43;;
75423;SDS011;64005;55.160;36.002;2023-04-03T07:52:43;11.30;;;5.18;;
75423;SDS011;64005;55.160;36.002;2023-04-03T08:10:45;12.68;;;5.03;;
75423;SDS011;64005;55.160;36.002;2023-04-03T08:34:55;9.75;;;4.68;;
75423;SDS011;64005;55.160;36.002;2023-04-03T10:59:37;12.13;;;5.55;;
75423;SDS011;64005;55.160;36.002;2023-04-03T11:41:25;11.75;;;5.93;;
75423;SDS011;64005;55.160;36.002;2023-04-03T11:44:04;11.05;;;5.32;;
75423;SDS011;64005;55.160;36.002;2023-04-03T11:54:42;12.52;;;6.30;;
75423;SDS011;64005;55.160;36.002;2023-04-03T11:59:48;10.77;;;5.78;;
75423;SDS011;64005;55.160;36.002;2023-04-03T12:31:25;11.55;;;5.57;;
75423;SDS011;64005;55.160;36.002;2023-04-03T12:53:33;9.70;;;5.28;;
75423;SDS011;64005;55.160;36.002;2023-04-03T12:58:53;10.48;;;5.18;;
75423;SDS011;64005;55.160;36.002;2023-04-03T13:04:05;10.65;;;5.13;;
75423;SDS011;64005;55.160;36.002;2023-04-03T13:28:23;6.50;;;2.40;;
75423;SDS011;64005;55.160;36.002;2023-04-03T13:31:06;9.48;;;2.42;;
75423;SDS011;64005;55.160;36.002;2023-04-03T13:54:40;7.25;;;2.25;;
75423;SDS011;64005;55.160;36.002;2023-04-03T14:07:35;6.38;;;2.00;;
75423;SDS011;64005;55.160;36.002;2023-04-03T14:41:58;10.40;;;3.40;;
75423;SDS011;64005;55.160;36.002;2023-04-03T14:44:27;8.32;;;3.60;;
75423;SDS011;64005;55.160;36.002;2023-04-03T14:55:53;8.13;;;3.53;;
75423;SDS011;64005;55.160;36.002;2023-04-03T14:58:20;7.85;;;3.35;;
75423;SDS011;64005;55.160;36.002;2023-04-03T15:00:49;8.05;;;3.60;;
75423;SDS011;64005;55.160;36.002;2023-04-03T15:03:18;10.48;;;4.25;;
75423;SDS011;64005;55.160;36.002;2023-04-03T15:05:47;9.35;;;3.58;;
75423;SDS011;64005;55.160;36.002;2023-04-03T15:14:08;8.50;;;3.65;;
75423;SDS011;64005;55.160;36.002;2023-04-03T15:16:37;10.65;;;4.13;;
75423;SDS011;64005;55.160;36.002;2023-04-03T15:19:05;12.35;;;4.28;;
75423;SDS011;64005;55.160;36.002;2023-04-03T15:21:32;10.75;;;4.72;;
75423;SDS011;64005;55.160;36.002;2023-04-03T15:24:00;10.27;;;4.40;;
75423;SDS011;64005;55.160;36.002;2023-04-03T15:26:27;10.48;;;4.70;;
75423;SDS011;64005;55.160;36.002;2023-04-03T15:28:56;8.63;;;4.50;;
75423;SDS011;64005;55.160;36.002;2023-04-03T15:34:20;8.43;;;4.45;;
75423;SDS011;64005;55.160;36.002;2023-04-03T15:36:47;9.30;;;4.45;;
75423;SDS011;64005;55.160;36.002;2023-04-03T15:39:15;11.00;;;4.25;;
75423;SDS011;64005;55.160;36.002;2023-04-03T15:41:42;9.38;;;4.80;;
75423;SDS011;64005;55.160;36.002;2023-04-03T15:44:10;9.25;;;4.47;;
75423;SDS011;64005;55.160;36.002;2023-04-03T15:46:39;13.48;;;5.25;;
75423;SDS011;64005;55.160;36.002;2023-04-03T15:49:06;10.65;;;4.40;;
75423;SDS011;64005;55.160;36.002;2023-04-03T15:51:35;11.57;;;5.15;;
75423;SDS011;64005;55.160;36.002;2023-04-03T15:54:03;10.75;;;4.30;;
75423;SDS011;64005;55.160;36.002;2023-04-03T15:56:30;12.65;;;4.93;;
75423;SDS011;64005;55.160;36.002;2023-04-03T15:58:58;9.32;;;4.82;;
75423;SDS011;64005;55.160;36.002;2023-04-03T16:01:25;12.00;;;4.88;;
75423;SDS011;64005;55.160;36.002;2023-04-03T16:03:53;9.05;;;4.50;;
75423;SDS011;64005;55.160;36.002;2023-04-03T16:06:21;12.95;;;5.07;;
75423;SDS011;64005;55.160;36.002;2023-04-03T16:08:52;11.60;;;5.20;;
75423;SDS011;64005;55.160;36.002;2023-04-03T16:11:22;9.93;;;5.10;;
75423;SDS011;64005;55.160;36.002;2023-04-03T16:13:49;10.30;;;4.80;;
75423;SDS011;64005;55.160;36.002;2023-04-03T16:16:17;11.13;;;5.68;;
75423;SDS011;64005;55.160;36.002;2023-04-03T16:18:45;16.80;;;5.75;;
75423;SDS011;64005;55.160;36.002;2023-04-03T16:21:13;12.27;;;5.28;;
75423;SDS011;64005;55.160;36.002;2023-04-03T16:23:42;11.10;;;4.80;;
75423;SDS011;64005;55.160;36.002;2023-04-03T16:26:11;12.65;;;4.80;;
75423;SDS011;64005;55.160;36.002;2023-04-03T16:28:39;11.20;;;4.70;;
75423;SDS011;64005;55.160;36.002;2023-04-03T16:31:07;12.90;;;5.60;;
75423;SDS011;64005;55.160;36.002;2023-04-03T16:33:35;13.38;;;5.53;;
75423;SDS011;64005;55.160;36.002;2023-04-03T16:36:03;12.18;;;5.40;;
75423;SDS011;64005;55.160;36.002;2023-04-03T16:38:31;11.98;;;5.03;;
75423;SDS011;64005;55.160;36.002;2023-04-03T16:40:58;12.50;;;6.32;;
75423;SDS011;64005;55.160;36.002;2023-04-03T16:43:31;18.35;;;8.35;;
75423;SDS011;64005;55.160;36.002;2023-04-03T16:46:01;15.07;;;6.00;;
75423;SDS011;64005;55.160;36.002;2023-04-03T16:48:28;13.52;;;5.57;;
75423;SDS011;64005;55.160;36.002;2023-04-03T16:50:56;10.95;;;5.35;;
75423;SDS011;64005;55.160;36.002;2023-04-03T16:53:24;13.88;;;6.28;;
75423;SDS011;64005;55.160;36.002;2023-04-03T16:55:52;12.50;;;6.00;;
75423;SDS011;64005;55.160;36.002;2023-04-03T16:58:20;11.52;;;6.03;;
75423;SDS011;64005;55.160;36.002;2023-04-03T17:00:49;13.07;;;6.03;;
75423;SDS011;64005;55.160;36.002;2023-04-03T17:03:16;10.93;;;5.50;;
75423;SDS011;64005;55.160;36.002;2023-04-03T17:05:46;14.07;;;5.53;;
75423;SDS011;64005;55.160;36.002;2023-04-03T17:08:15;16.05;;;5.75;;
75423;SDS011;64005;55.160;36.002;2023-04-03T17:10:43;18.13;;;6.40;;
75423;SDS011;64005;55.160;36.002;2023-04-03T17:13:10;12.68;;;5.60;;
75423;SDS011;64005;55.160;36.002;2023-04-03T17:15:38;14.55;;;6.15;;
75423;SDS011;64005;55.160;36.002;2023-04-03T17:18:07;15.40;;;6.05;;
75423;SDS011;64005;55.160;36.002;2023-04-03T17:20:35;15.52;;;6.20;;
75423;SDS011;64005;55.160;36.002;2023-04-03T17:23:03;16.20;;;6.88;;
75423;SDS011;64005;55.160;36.002;2023-04-03T17:25:31;13.32;;;6.18;;
75423;SDS011;64005;55.160;36.002;2023-04-03T17:27:58;15.52;;;6.32;;
75423;SDS011;64005;55.160;36.002;2023-04-03T17:30:26;15.88;;;6.43;;
75423;SDS011;64005;55.160;36.002;2023-04-03T17:32:53;17.25;;;6.45;;
75423;SDS011;64005;55.160;36.002;2023-04-03T17:35:22;16.20;;;6.25;;
75423;SDS011;64005;55.160;36.002;2023-04-03T17:37:50;18.73;;;7.00;;
75423;SDS011;64005;55.160;36.002;2023-04-03T17:40:18;16.67;;;6.32;;
75423;SDS011;64005;55.160;36.002;2023-04-03T17:42:45;16.45;;;6.53;;
75423;SDS011;64005;55.160;36.002;2023-04-03T17:45:13;18.38;;;6.38;;
75423;SDS011;64005;55.160;36.002;2023-04-03T17:47:40;17.42;;;7.00;;
75423;SDS011;64005;55.160;36.002;2023-04-03T17:50:08;13.30;;;6.38;;
75423;SDS011;64005;55.160;36.002;2023-04-03T17:52:37;18.17;;;6.90;;
75423;SDS011;64005;55.160;36.002;2023-04-03T17:55:05;18.13;;;6.95;;
75423;SDS011;64005;55.160;36.002;2023-04-03T17:57:33;17.80;;;6.97;;
75423;SDS011;64005;55.160;36.002;2023-04-03T18:00:00;14.52;;;6.13;;
75423;SDS011;64005;55.160;36.002;2023-04-03T18:02:29;15.93;;;6.57;;
75423;SDS011;64005;55.160;36.002;2023-04-03T18:04:57;17.45;;;7.10;;
75423;SDS011;64005;55.160;36.002;2023-04-03T18:07:25;18.00;;;7.00;;
75423;SDS011;64005;55.160;36.002;2023-04-03T18:09:55;16.50;;;7.38;;
75423;SDS011;64005;55.160;36.002;2023-04-03T18:12:25;13.35;;;6.32;;
75423;SDS011;64005;55.160;36.002;2023-04-03T18:14:52;17.15;;;7.40;;
75423;SDS011;64005;55.160;36.002;2023-04-03T18:17:20;19.08;;;7.30;;
75423;SDS011;64005;55.160;36.002;2023-04-03T18:19:47;16.60;;;6.82;;
75423;SDS011;64005;55.160;36.002;2023-04-03T18:22:16;21.13;;;7.43;;
75423;SDS011;64005;55.160;36.002;2023-04-03T18:24:46;22.50;;;7.55;;
75423;SDS011;64005;55.160;36.002;2023-04-03T18:27:17;15.30;;;6.60;;
75423;SDS011;64005;55.160;36.002;2023-04-03T18:34:43;15.38;;;6.55;;
75423;SDS011;64005;55.160;36.002;2023-04-03T18:37:11;17.88;;;7.78;;
75423;SDS011;64005;55.160;36.002;2023-04-03T18:39:39;21.67;;;8.18;;
75423;SDS011;64005;55.160;36.002;2023-04-03T18:42:08;20.60;;;8.55;;
75423;SDS011;64005;55.160;36.002;2023-04-03T18:44:39;16.30;;;7.47;;
75423;SDS011;64005;55.160;36.002;2023-04-03T18:47:08;18.40;;;7.45;;
75423;SDS011;64005;55.160;36.002;2023-04-03T18:49:37;20.20;;;8.40;;
75423;SDS011;64005;55.160;36.002;2023-04-03T18:52:06;15.93;;;6.78;;
75423;SDS011;64005;55.160;36.002;2023-04-03T18:54:34;12.02;;;5.65;;
75423;SDS011;64005;55.160;36.002;2023-04-03T18:57:02;12.23;;;5.68;;
75423;SDS011;64005;55.160;36.002;2023-04-03T18:59:30;13.48;;;6.13;;
75423;SDS011;64005;55.160;36.002;2023-04-03T19:01:59;11.93;;;6.15;;
75423;SDS011;64005;55.160;36.002;2023-04-03T19:04:26;13.63;;;5.15;;
75423;SDS011;64005;55.160;36.002;2023-04-03T19:06:55;14.02;;;5.95;;
75423;SDS011;64005;55.160;36.002;2023-04-03T19:09:22;11.18;;;5.45;;
75423;SDS011;64005;55.160;36.002;2023-04-03T19:11:51;12.43;;;5.88;;
75423;SDS011;64005;55.160;36.002;2023-04-03T19:14:19;10.85;;;5.50;;
75423;SDS011;64005;55.160;36.002;2023-04-03T19:16:46;14.05;;;5.78;;
75423;SDS011;64005;55.160;36.002;2023-04-03T19:19:15;12.05;;;5.63;;
75423;SDS011;64005;55.160;36.002;2023-04-03T19:21:43;11.50;;;5.22;;
75423;SDS011;64005;55.160;36.002;2023-04-03T19:24:10;17.35;;;5.43;;
75423;SDS011;64005;55.160;36.002;2023-04-03T19:26:39;13.02;;;5.13;;
75423;SDS011;64005;55.160;36.002;2023-04-03T19:29:07;12.25;;;5.15;;
75423;SDS011;64005;55.160;36.002;2023-04-03T19:31:34;11.80;;;5.45;;
75423;SDS011;64005;55.160;36.002;2023-04-03T19:34:05;14.20;;;5.78;;
75423;SDS011;64005;55.160;36.002;2023-04-03T19:36:35;11.55;;;5.60;;
75423;SDS011;64005;55.160;36.002;2023-04-03T19:39:03;12.23;;;5.75;;
75423;SDS011;64005;55.160;36.002;2023-04-03T19:41:32;11.52;;;5.82;;
75423;SDS011;64005;55.160;36.002;2023-04-03T19:44:02;11.32;;;4.88;;
75423;SDS011;64005;55.160;36.002;2023-04-03T19:46:32;9.70;;;4.25;;
75423;SDS011;64005;55.160;36.002;2023-04-03T19:49:00;10.88;;;4.45;;
75423;SDS011;64005;55.160;36.002;2023-04-03T19:51:28;10.70;;;5.07;;
75423;SDS011;64005;55.160;36.002;2023-04-03T19:53:57;6.65;;;3.53;;
75423;SDS011;64005;55.160;36.002;2023-04-03T19:56:24;10.07;;;4.15;;
75423;SDS011;64005;55.160;36.002;2023-04-03T19:58:52;7.82;;;3.42;;
75423;SDS011;64005;55.160;36.002;2023-04-03T20:01:19;8.45;;;3.83;;
75423;SDS011;64005;55.160;36.002;2023-04-03T20:03:48;8.73;;;2.80;;
75423;SDS011;64005;55.160;36.002;2023-04-03T20:06:16;9.25;;;3.58;;
75423;SDS011;64005;55.160;36.002;2023-04-03T20:08:43;7.88;;;3.17;;
75423;SDS011;64005;55.160;36.002;2023-04-03T20:11:12;7.20;;;3.22;;
75423;SDS011;64005;55.160;36.002;2023-04-03T20:13:41;10.43;;;4.20;;
75423;SDS011;64005;55.160;36.002;2023-04-03T20:16:08;8.73;;;4.40;;
75423;SDS011;64005;55.160;36.002;2023-04-03T20:18:36;11.55;;;5.97;;
75423;SDS011;64005;55.160;36.002;2023-04-03T20:21:04;8.88;;;4.38;;
75423;SDS011;64005;55.160;36.002;2023-04-03T20:23:33;12.93;;;5.45;;
75423;SDS011;64005;55.160;36.002;2023-04-03T20:26:02;8.93;;;3.97;;
75423;SDS011;64005;55.160;36.002;2023-04-03T20:28:33;8.90;;;3.17;;
75423;SDS011;64005;55.160;36.002;2023-04-03T20:31:01;8.20;;;3.65;;
75423;SDS011;64005;55.160;36.002;2023-04-03T20:33:29;9.45;;;3.50;;
75423;SDS011;64005;55.160;36.002;2023-04-03T20:35:56;9.45;;;4.10;;
75423;SDS011;64005;55.160;36.002;2023-04-03T20:38:26;6.85;;;2.72;;
75423;SDS011;64005;55.160;36.002;2023-04-03T20:40:53;7.90;;;3.50;;
75423;SDS011;64005;55.160;36.002;2023-04-03T20:43:20;8.07;;;4.15;;
75423;SDS011;64005;55.160;36.002;2023-04-03T20:45:50;11.98;;;4.68;;
75423;SDS011;64005;55.160;36.002;2023-04-03T20:48:17;10.27;;;4.43;;
75423;SDS011;64005;55.160;36.002;2023-04-03T20:50:45;10.45;;;4.45;;
75423;SDS011;64005;55.160;36.002;2023-04-03T20:53:12;7.60;;;3.40;;
75423;SDS011;64005;55.160;36.002;2023-04-03T20:55:42;8.18;;;4.15;;
75423;SDS011;64005;55.160;36.002;2023-04-03T20:58:19;9.00;;;4.72;;
75423;SDS011;64005;55.160;36.002;2023-04-03T21:00:51;11.52;;;4.65;;
75423;SDS011;64005;55.160;36.002;2023-04-03T21:03:21;8.60;;;4.50;;
75423;SDS011;64005;55.160;36.002;2023-04-03T21:20:42;10.27;;;3.05;;
75423;SDS011;64005;55.160;36.002;2023-04-03T21:23:12;9.95;;;3.67;;
75423;SDS011;64005;55.160;36.002;2023-04-03T21:25:40;9.90;;;4.07;;
75423;SDS011;64005;55.160;36.002;2023-04-03T21:28:07;14.50;;;6.60;;
75423;SDS011;64005;55.160;36.002;2023-04-03T21:30:35;16.30;;;6.30;;
75423;SDS011;64005;55.160;36.002;2023-04-03T21:33:04;17.75;;;6.38;;
75423;SDS011;64005;55.160;36.002;2023-04-03T21:35:31;14.98;;;6.53;;
75423;SDS011;64005;55.160;36.002;2023-04-03T21:37:58;15.30;;;7.00;;